Time;durP1;ratioP1;P1;durP2;ratioP2;P2;SDS_P1;SDS_P2;PMS_P1;PMS_P2;Temp;Humidity;BMP_temperature;BMP_pressure;BME280_temperature;BME280_humidity;BME280_pressure;Samples;Min_cycle;Max_cycle;Signal;HPM_P1;HPM_P2
2022/09/06 00:01:12;;;;;;;;;;;27.10;97.10;;;;;;5105985;28;19905;-54
2022/09/06 00:03:38;;;;;;;;;;;27.10;97.10;;;;;;5105737;28;19918;-53
2022/09/06 00:06:08;;;;;;;;;;;27.10;97.20;;;;;;5105575;28;19909;-54
2022/09/06 00:08:34;;;;;;;;;;;27.10;97.20;;;;;;5105590;28;19915;-57
2022/09/06 00:11:01;;;;;;;;;;;27.10;97.10;;;;;;5106054;28;19915;-56
2022/09/06 00:13:27;;;;;;;;;;;27.10;97.10;;;;;;5105588;28;19912;-56
2022/09/06 00:15:53;;;;;;;;;;;27.10;97.20;;;;;;5105598;28;19908;-54
2022/09/06 00:18:19;;;;;;;;;;;27.10;97.10;;;;;;5105610;28;19911;-55
2022/09/06 00:20:45;;;;;;;;;;;27.10;97.20;;;;;;5105923;28;19935;-57
2022/09/06 00:23:12;;;;;;;;;;;27.10;97.20;;;;;;5105257;28;19912;-55
2022/09/06 00:25:38;;;;;;;;;;;27.10;97.10;;;;;;5105779;28;19954;-56
2022/09/06 00:28:04;;;;;;;;;;;27.10;97.10;;;;;;5105174;28;20294;-54
2022/09/06 00:30:31;;;;;;;;;;;27.10;97.10;;;;;;5105503;28;19943;-54
2022/09/06 00:32:57;;;;;;;;;;;27.00;97.00;;;;;;5105365;28;19915;-52
2022/09/06 00:35:25;;;;;;;;;;;27.00;97.10;;;;;;5105409;28;19908;-55
2022/09/06 00:37:54;;;;;;;;;;;27.00;97.00;;;;;;5104865;28;20131;-54
2022/09/06 00:40:21;;;;;;;;;;;27.00;97.10;;;;;;5105531;28;19912;-56
2022/09/06 00:42:47;;;;;;;;;;;27.00;97.00;;;;;;5105120;28;20019;-56
2022/09/06 00:45:13;;;;;;;;;;;27.00;97.10;;;;;;5105174;28;20246;-53
2022/09/06 00:47:40;;;;;;;;;;;27.00;97.20;;;;;;5104948;28;19927;-57
2022/09/06 00:50:07;;;;;;;;;;;27.00;97.10;;;;;;5105189;28;19915;-54
2022/09/06 00:52:33;;;;;;;;;;;27.00;97.10;;;;;;5104829;28;19912;-60
2022/09/06 00:55:00;;;;;;;;;;;27.00;97.10;;;;;;5104927;28;19939;-56
2022/09/06 00:57:30;;;;;;;;;;;27.00;97.10;;;;;;5104686;28;19915;-56
2022/09/06 00:59:57;;;;;;;;;;;27.00;97.10;;;;;;5104748;28;19908;-57
2022/09/06 01:02:23;;;;;;;;;;;27.00;97.20;;;;;;5104600;28;19916;-53
2022/09/06 01:04:50;;;;;;;;;;;27.00;97.20;;;;;;5104701;28;19908;-58
2022/09/06 01:07:35;;;;;;;;;;;27.00;97.20;;;;;;5104482;28;20220;-54
2022/09/06 01:10:01;;;;;;;;;;;26.90;97.20;;;;;;5104742;28;19908;-55
2022/09/06 01:12:30;;;;;;;;;;;26.90;97.10;;;;;;5104433;28;19975;-56
2022/09/06 01:14:56;;;;;;;;;;;26.90;97.10;;;;;;5104535;28;19908;-59
2022/09/06 01:17:25;;;;;;;;;;;26.90;97.10;;;;;;5104420;28;19962;-56
2022/09/06 01:20:10;;;;;;;;;;;26.90;97.10;;;;;;5104720;28;20184;-56
2022/09/06 01:22:36;;;;;;;;;;;26.90;97.10;;;;;;5104618;28;19950;-55
2022/09/06 01:25:24;;;;;;;;;;;26.90;97.10;;;;;;5104650;28;19965;-55
2022/09/06 01:28:13;;;;;;;;;;;26.90;97.10;;;;;;5104318;28;20113;-57
2022/09/06 01:30:46;;;;;;;;;;;26.90;97.10;;;;;;5104578;28;19905;-57
2022/09/06 01:33:25;;;;;;;;;;;26.90;97.20;;;;;;5103621;28;19916;-56
2022/09/06 01:36:03;;;;;;;;;;;26.90;97.30;;;;;;5104506;28;19932;-54
2022/09/06 01:38:29;;;;;;;;;;;26.90;97.30;;;;;;5104341;28;20108;-55
2022/09/06 01:40:55;;;;;;;;;;;26.90;97.30;;;;;;5106574;28;19932;-55
2022/09/06 01:43:26;;;;;;;;;;;26.90;97.30;;;;;;5108585;28;19912;-55
2022/09/06 01:46:11;;;;;;;;;;;26.90;97.30;;;;;;5108848;28;19908;-55
2022/09/06 01:48:49;;;;;;;;;;;26.90;97.40;;;;;;5108309;28;19965;-56
2022/09/06 01:51:22;;;;;;;;;;;26.90;97.40;;;;;;5108269;28;19931;-56
2022/09/06 01:54:01;;;;;;;;;;;26.80;97.40;;;;;;5107887;28;20218;-60
2022/09/06 01:56:39;;;;;;;;;;;26.90;97.40;;;;;;5108180;28;20262;-58
2022/09/06 01:59:23;;;;;;;;;;;26.90;97.40;;;;;;5108017;28;19908;-55
2022/09/06 02:02:01;;;;;;;;;;;26.90;97.50;;;;;;5107943;28;20196;-59
2022/09/06 02:04:30;;;;;;;;;;;26.90;97.40;;;;;;5108205;28;19966;-54
2022/09/06 02:07:07;;;;;;;;;;;26.90;97.40;;;;;;5107994;28;19919;-55
2022/09/06 02:09:36;;;;;;;;;;;26.80;97.40;;;;;;5107842;28;19908;-55
2022/09/06 02:12:04;;;;;;;;;;;26.90;97.50;;;;;;5107777;28;19950;-54
2022/09/06 02:14:35;;;;;;;;;;;26.90;97.70;;;;;;5107908;28;20065;-59
2022/09/06 02:17:02;;;;;;;;;;;26.90;97.50;;;;;;5107471;28;19920;-52
2022/09/06 02:19:31;;;;;;;;;;;26.90;97.50;;;;;;5107826;28;19908;-55
2022/09/06 02:21:57;;;;;;;;;;;26.90;97.50;;;;;;5107765;28;19912;-56
2022/09/06 02:24:28;;;;;;;;;;;26.90;97.50;;;;;;5107457;28;19959;-54
2022/09/06 02:26:55;;;;;;;;;;;26.80;97.40;;;;;;5107542;28;19912;-55
2022/09/06 02:29:22;;;;;;;;;;;26.90;97.50;;;;;;5107677;28;19908;-56
2022/09/06 02:31:52;;;;;;;;;;;26.90;97.40;;;;;;5107342;28;19912;-54
2022/09/06 02:34:19;;;;;;;;;;;26.90;97.50;;;;;;5107513;28;19954;-55
2022/09/06 02:36:45;;;;;;;;;;;26.90;97.50;;;;;;5107372;28;20209;-54
2022/09/06 02:39:12;;;;;;;;;;;26.90;97.50;;;;;;5107228;28;19924;-56
2022/09/06 02:41:39;;;;;;;;;;;26.90;97.60;;;;;;5107175;28;19912;-54
2022/09/06 02:44:05;;;;;;;;;;;26.80;97.50;;;;;;5107292;28;19908;-56
2022/09/06 02:46:31;;;;;;;;;;;26.90;97.50;;;;;;5107723;28;19912;-53
2022/09/06 02:48:58;;;;;;;;;;;26.80;97.50;;;;;;5107103;28;20211;-54
2022/09/06 02:51:25;;;;;;;;;;;26.90;97.60;;;;;;5106296;28;19912;-55
2022/09/06 02:53:51;;;;;;;;;;;26.90;97.60;;;;;;5106228;28;20185;-57
2022/09/06 02:56:17;;;;;;;;;;;26.90;97.60;;;;;;5107010;28;19954;-55
2022/09/06 02:58:43;;;;;;;;;;;26.90;97.70;;;;;;5107005;28;20005;-52
2022/09/06 03:01:11;;;;;;;;;;;26.90;97.70;;;;;;5107168;28;19908;-56
2022/09/06 03:03:38;;;;;;;;;;;26.80;97.70;;;;;;5106920;28;19983;-58
2022/09/06 03:06:04;;;;;;;;;;;26.80;97.70;;;;;;5107320;28;19931;-55
2022/09/06 03:08:32;;;;;;;;;;;26.80;97.80;;;;;;5106730;28;20197;-55
2022/09/06 03:10:59;;;;;;;;;;;26.80;97.70;;;;;;5107175;28;19950;-55
2022/09/06 03:13:26;;;;;;;;;;;26.80;97.70;;;;;;5106622;28;20220;-59
2022/09/06 03:15:54;;;;;;;;;;;26.80;97.60;;;;;;5106895;28;19987;-56
2022/09/06 03:18:21;;;;;;;;;;;26.80;97.60;;;;;;5106623;28;19966;-54
2022/09/06 03:20:50;;;;;;;;;;;26.80;97.60;;;;;;5106533;28;20181;-60
2022/09/06 03:23:17;;;;;;;;;;;26.80;97.60;;;;;;5106332;28;20243;-55
2022/09/06 03:25:45;;;;;;;;;;;26.80;97.60;;;;;;5106990;28;20199;-52
2022/09/06 03:28:11;;;;;;;;;;;26.80;97.60;;;;;;5106494;28;19938;-57
2022/09/06 03:30:38;;;;;;;;;;;26.80;97.60;;;;;;5106563;28;19912;-55
2022/09/06 03:33:04;;;;;;;;;;;26.80;97.60;;;;;;5106265;28;19908;-54
2022/09/06 03:35:30;;;;;;;;;;;26.80;97.50;;;;;;5106704;28;19914;-56
2022/09/06 03:37:56;;;;;;;;;;;26.80;97.50;;;;;;5106078;28;19912;-56
2022/09/06 03:40:23;;;;;;;;;;;26.80;97.50;;;;;;5106704;28;19908;-55
2022/09/06 03:42:49;;;;;;;;;;;26.80;97.50;;;;;;5106147;28;20100;-57
2022/09/06 03:45:15;;;;;;;;;;;26.80;97.50;;;;;;5106243;28;19975;-56
2022/09/06 03:47:41;;;;;;;;;;;26.70;97.50;;;;;;5106402;28;20103;-57
2022/09/06 03:50:07;;;;;;;;;;;26.80;97.50;;;;;;5106282;28;19934;-58
2022/09/06 03:52:33;;;;;;;;;;;26.80;97.50;;;;;;5106017;28;19912;-54
2022/09/06 03:55:00;;;;;;;;;;;26.70;97.50;;;;;;5106168;28;19920;-56
2022/09/06 03:57:26;;;;;;;;;;;26.70;97.50;;;;;;5105883;28;19946;-56
2022/09/06 03:59:52;;;;;;;;;;;26.70;97.50;;;;;;5106144;28;19975;-56
2022/09/06 04:02:18;;;;;;;;;;;26.70;97.50;;;;;;5105858;28;20095;-58
2022/09/06 04:04:44;;;;;;;;;;;26.70;97.70;;;;;;5105411;28;19915;-55
2022/09/06 04:07:10;;;;;;;;;;;26.70;97.50;;;;;;5105797;28;20204;-54
2022/09/06 04:09:36;;;;;;;;;;;26.70;97.50;;;;;;5105691;28;20238;-58
2022/09/06 04:12:03;;;;;;;;;;;26.70;97.40;;;;;;5105654;28;19912;-56
2022/09/06 04:14:29;;;;;;;;;;;26.60;97.40;;;;;;5105655;28;19919;-55
2022/09/06 04:16:55;;;;;;;;;;;26.60;97.40;;;;;;5105226;28;19927;-56
2022/09/06 04:19:22;;;;;;;;;;;26.60;97.30;;;;;;5105586;28;19908;-61
2022/09/06 04:21:48;;;;;;;;;;;26.60;97.20;;;;;;5105612;28;19988;-58
2022/09/06 04:24:14;;;;;;;;;;;26.60;97.20;;;;;;5105256;28;19908;-55
2022/09/06 04:26:41;;;;;;;;;;;26.60;97.20;;;;;;5105326;28;19914;-56
2022/09/06 04:29:07;;;;;;;;;;;26.60;97.20;;;;;;5105336;28;19908;-55
2022/09/06 04:31:33;;;;;;;;;;;26.60;97.10;;;;;;5105214;28;19919;-57
2022/09/06 04:33:59;;;;;;;;;;;26.60;97.10;;;;;;5105207;28;19977;-56
2022/09/06 04:36:25;;;;;;;;;;;26.60;97.10;;;;;;5105334;28;19912;-58
2022/09/06 04:38:51;;;;;;;;;;;26.60;97.10;;;;;;5104968;28;19908;-56
2022/09/06 04:41:18;;;;;;;;;;;26.60;97.00;;;;;;5105010;28;20166;-55
2022/09/06 04:43:44;;;;;;;;;;;26.60;97.00;;;;;;5105002;28;20199;-59
2022/09/06 04:46:20;;;;;;;;;;;26.60;97.00;;;;;;5105588;28;20263;-56
2022/09/06 04:48:47;;;;;;;;;;;26.50;97.00;;;;;;5104900;28;19908;-55
2022/09/06 04:51:13;;;;;;;;;;;26.60;97.10;;;;;;5104972;28;19912;-52
2022/09/06 04:53:39;;;;;;;;;;;26.60;97.10;;;;;;5104685;28;19908;-58
2022/09/06 04:56:05;;;;;;;;;;;26.50;97.00;;;;;;5105334;28;19915;-56
2022/09/06 04:58:31;;;;;;;;;;;26.50;97.00;;;;;;5104738;28;20018;-59
2022/09/06 05:00:58;;;;;;;;;;;26.50;97.00;;;;;;5105112;28;19911;-56
2022/09/06 05:03:24;;;;;;;;;;;26.50;97.00;;;;;;5104844;28;20211;-54
2022/09/06 05:05:50;;;;;;;;;;;26.50;97.00;;;;;;5104618;28;19915;-56
2022/09/06 05:08:16;;;;;;;;;;;26.50;97.00;;;;;;5104742;28;19950;-56
2022/09/06 05:10:42;;;;;;;;;;;26.40;97.00;;;;;;5104838;28;19924;-55
2022/09/06 05:13:08;;;;;;;;;;;26.40;97.00;;;;;;5104549;28;19975;-54
2022/09/06 05:15:34;;;;;;;;;;;26.40;97.00;;;;;;5104231;28;19908;-56
2022/09/06 05:18:02;;;;;;;;;;;26.40;97.00;;;;;;5104240;28;20108;-54
2022/09/06 05:20:29;;;;;;;;;;;26.40;97.00;;;;;;5104786;28;19908;-57
2022/09/06 05:22:55;;;;;;;;;;;26.40;96.90;;;;;;5104386;28;20220;-55
2022/09/06 05:25:21;;;;;;;;;;;26.40;96.90;;;;;;5104646;28;19904;-55
2022/09/06 05:27:47;;;;;;;;;;;26.40;96.90;;;;;;5104496;28;19926;-55
2022/09/06 05:30:13;;;;;;;;;;;26.40;96.90;;;;;;5104763;28;19915;-56
2022/09/06 05:32:40;;;;;;;;;;;26.40;96.90;;;;;;5104183;28;19943;-54
2022/09/06 05:35:06;;;;;;;;;;;26.40;96.80;;;;;;5104564;28;20208;-55
2022/09/06 05:37:32;;;;;;;;;;;26.40;96.80;;;;;;5104471;28;19915;-56
2022/09/06 05:39:59;;;;;;;;;;;26.40;96.90;;;;;;5104399;28;19908;-53
2022/09/06 05:42:25;;;;;;;;;;;26.40;96.90;;;;;;5104243;28;20187;-56
2022/09/06 05:44:51;;;;;;;;;;;26.40;96.90;;;;;;5104514;28;19946;-57
2022/09/06 05:47:17;;;;;;;;;;;26.40;96.90;;;;;;5104186;28;19912;-56
2022/09/06 05:49:43;;;;;;;;;;;26.30;96.80;;;;;;5104267;28;19919;-59
2022/09/06 05:52:09;;;;;;;;;;;26.30;96.80;;;;;;5104267;28;20200;-57
2022/09/06 05:54:35;;;;;;;;;;;26.30;96.80;;;;;;5104239;28;19919;-58
2022/09/06 05:57:01;;;;;;;;;;;26.30;96.80;;;;;;5104106;28;19970;-58
2022/09/06 05:59:27;;;;;;;;;;;26.30;96.80;;;;;;5104387;28;20180;-55
2022/09/06 06:01:54;;;;;;;;;;;26.30;96.80;;;;;;5103930;28;19908;-55
2022/09/06 06:04:21;;;;;;;;;;;26.30;96.80;;;;;;5103987;28;19908;-58
2022/09/06 06:06:48;;;;;;;;;;;26.30;96.90;;;;;;5104308;28;20112;-55
2022/09/06 06:09:14;;;;;;;;;;;26.30;96.90;;;;;;5104028;28;19908;-56
2022/09/06 06:11:41;;;;;;;;;;;26.30;96.90;;;;;;5103933;28;19950;-59
2022/09/06 06:14:07;;;;;;;;;;;26.30;97.20;;;;;;5103895;28;19948;-56
2022/09/06 06:16:33;;;;;;;;;;;26.30;97.00;;;;;;5103871;28;19953;-55
2022/09/06 06:18:59;;;;;;;;;;;26.30;97.00;;;;;;5103978;28;19954;-56
2022/09/06 06:21:27;;;;;;;;;;;26.30;97.20;;;;;;5103835;28;19912;-57
2022/09/06 06:24:00;;;;;;;;;;;26.30;97.00;;;;;;5103099;28;20227;-54
2022/09/06 06:26:27;;;;;;;;;;;26.30;97.30;;;;;;5104707;28;20108;-54
2022/09/06 06:28:53;;;;;;;;;;;26.30;97.10;;;;;;5107674;28;19915;-55
2022/09/06 06:31:22;;;;;;;;;;;26.30;97.10;;;;;;5107869;28;19912;-56
2022/09/06 06:33:49;;;;;;;;;;;26.20;97.00;;;;;;5107201;28;20159;-54
2022/09/06 06:36:15;;;;;;;;;;;26.30;97.00;;;;;;5107459;28;19919;-56
2022/09/06 06:38:43;;;;;;;;;;;26.30;97.00;;;;;;5107674;28;19904;-56
2022/09/06 06:41:10;;;;;;;;;;;26.30;97.10;;;;;;5107710;28;19908;-54
2022/09/06 06:43:36;;;;;;;;;;;26.30;97.10;;;;;;5107452;28;19908;-53
2022/09/06 06:46:07;;;;;;;;;;;26.30;97.10;;;;;;5107797;28;19908;-56
2022/09/06 06:48:34;;;;;;;;;;;26.30;97.10;;;;;;5107095;28;19988;-53
2022/09/06 06:51:00;;;;;;;;;;;26.20;97.10;;;;;;5107711;28;19938;-57
2022/09/06 06:53:26;;;;;;;;;;;26.20;97.10;;;;;;5107366;28;19939;-56
2022/09/06 06:55:53;;;;;;;;;;;26.20;97.10;;;;;;5107376;28;19908;-57
2022/09/06 06:58:19;;;;;;;;;;;26.20;97.10;;;;;;5107079;28;19916;-56
2022/09/06 07:00:46;;;;;;;;;;;26.20;97.20;;;;;;5107479;28;19914;-54
2022/09/06 07:03:12;;;;;;;;;;;26.20;97.20;;;;;;5106932;28;19923;-55
2022/09/06 07:05:39;;;;;;;;;;;26.20;97.20;;;;;;5107381;28;19908;-55
2022/09/06 07:08:05;;;;;;;;;;;26.20;97.20;;;;;;5106867;28;19954;-57
2022/09/06 07:10:33;;;;;;;;;;;26.30;97.30;;;;;;5106999;28;20026;-54
2022/09/06 07:12:59;;;;;;;;;;;26.20;97.20;;;;;;5106700;28;19995;-54
2022/09/06 07:15:25;;;;;;;;;;;26.30;97.20;;;;;;5107213;28;19950;-51
2022/09/06 07:17:53;;;;;;;;;;;26.30;97.30;;;;;;5106433;28;19920;-54
2022/09/06 07:20:19;;;;;;;;;;;26.30;97.30;;;;;;5107228;28;20204;-53
2022/09/06 07:22:45;;;;;;;;;;;26.20;97.30;;;;;;5106796;28;19912;-53
2022/09/06 07:25:13;;;;;;;;;;;26.20;97.30;;;;;;5106705;28;19908;-55
2022/09/06 07:27:39;;;;;;;;;;;26.20;97.40;;;;;;5106701;28;19912;-53
2022/09/06 07:30:06;;;;;;;;;;;26.20;97.40;;;;;;5106592;28;19979;-53
2022/09/06 07:32:35;;;;;;;;;;;26.20;97.40;;;;;;5106310;28;20289;-53
2022/09/06 07:35:01;;;;;;;;;;;26.20;97.40;;;;;;5106306;28;19958;-54
2022/09/06 07:37:27;;;;;;;;;;;26.20;97.40;;;;;;5106008;28;20192;-57
2022/09/06 07:39:53;;;;;;;;;;;26.20;97.40;;;;;;5105975;28;19975;-54
2022/09/06 07:42:19;;;;;;;;;;;26.20;97.40;;;;;;5106200;28;19987;-53
2022/09/06 07:44:45;;;;;;;;;;;26.20;97.40;;;;;;5106425;28;19943;-54
2022/09/06 07:47:12;;;;;;;;;;;26.20;97.40;;;;;;5106133;28;19950;-55
2022/09/06 07:49:38;;;;;;;;;;;26.20;97.30;;;;;;5106109;28;19922;-54
2022/09/06 07:52:04;;;;;;;;;;;26.20;97.40;;;;;;5106059;28;19994;-53
2022/09/06 07:54:30;;;;;;;;;;;26.20;97.40;;;;;;5106022;28;19912;-54
2022/09/06 07:56:56;;;;;;;;;;;26.20;97.40;;;;;;5105904;28;19914;-54
2022/09/06 07:59:22;;;;;;;;;;;26.20;97.40;;;;;;5106052;28;19908;-61
2022/09/06 08:01:49;;;;;;;;;;;26.10;97.40;;;;;;5105807;28;19916;-53
2022/09/06 08:04:15;;;;;;;;;;;26.10;97.40;;;;;;5105681;28;20078;-52
2022/09/06 08:06:49;;;;;;;;;;;26.20;97.50;;;;;;5105740;28;19914;-54
2022/09/06 08:09:15;;;;;;;;;;;26.20;97.50;;;;;;5105741;28;19908;-55
2022/09/06 08:11:42;;;;;;;;;;;26.10;97.40;;;;;;5105507;28;20007;-54
2022/09/06 08:14:09;;;;;;;;;;;26.20;97.50;;;;;;5105666;28;20165;-53
2022/09/06 08:16:35;;;;;;;;;;;26.20;97.50;;;;;;5105396;28;19928;-53
2022/09/06 08:19:07;;;;;;;;;;;26.10;97.40;;;;;;5105368;28;20074;-54
2022/09/06 08:21:34;;;;;;;;;;;26.10;97.40;;;;;;5105474;28;19912;-52
2022/09/06 08:24:01;;;;;;;;;;;26.10;97.40;;;;;;5105319;28;19904;-53
2022/09/06 08:26:28;;;;;;;;;;;26.10;97.40;;;;;;5105190;28;19912;-52
2022/09/06 08:28:56;;;;;;;;;;;26.10;97.40;;;;;;5105259;28;20108;-58
2022/09/06 08:31:22;;;;;;;;;;;26.10;97.40;;;;;;5105256;28;19919;-55
2022/09/06 08:33:48;;;;;;;;;;;26.10;97.30;;;;;;5104997;28;19920;-55
2022/09/06 08:36:14;;;;;;;;;;;26.10;97.30;;;;;;5105343;28;19916;-55
2022/09/06 08:38:40;;;;;;;;;;;26.10;97.40;;;;;;5105206;28;19915;-52
2022/09/06 08:41:09;;;;;;;;;;;26.10;97.40;;;;;;5105485;28;19908;-59
2022/09/06 08:43:35;;;;;;;;;;;26.10;97.40;;;;;;5105219;28;19908;-53
2022/09/06 08:46:03;;;;;;;;;;;26.10;97.40;;;;;;5105449;28;19994;-58
2022/09/06 08:48:32;;;;;;;;;;;26.10;97.30;;;;;;5104920;28;20181;-61
2022/09/06 08:51:09;;;;;;;;;;;26.10;97.30;;;;;;5105322;28;20069;-54
2022/09/06 08:53:38;;;;;;;;;;;26.10;97.30;;;;;;5104783;28;20085;-55
2022/09/06 08:56:12;;;;;;;;;;;26.10;97.30;;;;;;5105323;28;19914;-55
2022/09/06 08:58:44;;;;;;;;;;;26.10;97.30;;;;;;5104820;28;20196;-54
2022/09/06 09:01:24;;;;;;;;;;;26.10;97.30;;;;;;5105056;28;19912;-53
2022/09/06 09:03:52;;;;;;;;;;;26.10;97.40;;;;;;5104632;28;19920;-51
2022/09/06 09:06:18;;;;;;;;;;;26.10;97.40;;;;;;5104598;28;19912;-52
2022/09/06 09:08:46;;;;;;;;;;;26.10;97.50;;;;;;5104816;28;19965;-57
2022/09/06 09:11:17;;;;;;;;;;;26.10;97.50;;;;;;5104542;28;19912;-55
2022/09/06 09:13:46;;;;;;;;;;;26.10;97.50;;;;;;5104366;28;19912;-58
2022/09/06 09:16:15;;;;;;;;;;;26.10;97.50;;;;;;5104514;28;19919;-58
2022/09/06 09:18:46;;;;;;;;;;;26.00;97.40;;;;;;5104497;28;19912;-55
2022/09/06 09:21:13;;;;;;;;;;;26.00;97.40;;;;;;5104544;28;19979;-57
2022/09/06 09:23:39;;;;;;;;;;;26.10;97.50;;;;;;5104587;28;19920;-53
2022/09/06 09:26:08;;;;;;;;;;;26.00;97.40;;;;;;5105039;28;19912;-52
2022/09/06 09:28:35;;;;;;;;;;;26.00;97.40;;;;;;5104612;28;19976;-55
2022/09/06 09:31:01;;;;;;;;;;;26.00;97.50;;;;;;5104816;28;20184;-55
2022/09/06 09:33:35;;;;;;;;;;;26.10;97.50;;;;;;5104387;28;19916;-57
2022/09/06 09:36:06;;;;;;;;;;;26.10;97.60;;;;;;5104762;28;19936;-57
2022/09/06 09:38:39;;;;;;;;;;;26.00;97.50;;;;;;5104451;28;19912;-56
2022/09/06 09:41:06;;;;;;;;;;;26.10;97.50;;;;;;5104694;28;19908;-57
2022/09/06 09:43:35;;;;;;;;;;;26.00;97.50;;;;;;5104501;28;20196;-56
2022/09/06 09:46:11;;;;;;;;;;;26.00;97.50;;;;;;5104806;28;19927;-55
2022/09/06 09:48:38;;;;;;;;;;;26.00;97.50;;;;;;5104382;28;20098;-54
2022/09/06 09:51:17;;;;;;;;;;;26.00;97.50;;;;;;5104768;28;19915;-58
2022/09/06 09:53:53;;;;;;;;;;;26.00;97.50;;;;;;5103947;28;19916;-54
2022/09/06 09:56:25;;;;;;;;;;;26.00;97.50;;;;;;5104117;28;19912;-56
2022/09/06 09:58:52;;;;;;;;;;;26.00;97.50;;;;;;5103979;28;20108;-55
2022/09/06 10:01:21;;;;;;;;;;;26.10;97.60;;;;;;5104890;28;19949;-56
2022/09/06 10:03:50;;;;;;;;;;;26.00;97.60;;;;;;5108050;28;19911;-58
2022/09/06 10:06:24;;;;;;;;;;;26.00;97.60;;;;;;5107928;28;19971;-56
2022/09/06 10:08:50;;;;;;;;;;;26.00;97.60;;;;;;5108128;28;19932;-63
2022/09/06 10:11:36;;;;;;;;;;;26.00;97.60;;;;;;5107869;28;19920;-57
2022/09/06 10:14:34;;;;;;;;;;;26.00;97.70;;;;;;5108027;28;19908;-55
2022/09/06 10:17:00;;;;;;;;;;;26.00;97.70;;;;;;5063150;28;19928;-55
2022/09/06 10:19:40;;;;;;;;;;;26.00;97.60;;;;;;5107869;28;19904;-56
2022/09/06 10:22:29;;;;;;;;;;;26.00;97.70;;;;;;5107619;28;19943;-57
2022/09/06 10:25:14;;;;;;;;;;;26.00;97.70;;;;;;5097354;28;19908;-60
2022/09/06 10:27:48;;;;;;;;;;;26.00;97.80;;;;;;5107767;28;19912;-56
2022/09/06 10:30:14;;;;;;;;;;;26.00;97.70;;;;;;5107948;28;19908;-55
2022/09/06 10:32:41;;;;;;;;;;;26.00;97.70;;;;;;5107342;28;19986;-56
2022/09/06 10:35:10;;;;;;;;;;;26.00;97.70;;;;;;5107685;28;19987;-55
2022/09/06 10:38:06;;;;;;;;;;;26.00;97.80;;;;;;5107465;28;19947;-58
2022/09/06 10:40:41;;;;;;;;;;;26.00;97.70;;;;;;5035831;28;20078;-54
2022/09/06 10:43:11;;;;;;;;;;;26.00;97.70;;;;;;5107230;28;19915;-55
2022/09/06 10:45:53;;;;;;;;;;;26.00;97.80;;;;;;5107946;28;19904;-54
2022/09/06 10:48:28;;;;;;;;;;;26.00;97.80;;;;;;5107410;28;20246;-54
2022/09/06 10:51:00;;;;;;;;;;;26.00;97.80;;;;;;5107201;28;19975;-55
2022/09/06 10:53:45;;;;;;;;;;;26.00;97.80;;;;;;5107352;28;19916;-56
2022/09/06 10:56:31;;;;;;;;;;;26.00;97.80;;;;;;5107554;28;20135;-55
2022/09/06 10:58:57;;;;;;;;;;;26.00;97.90;;;;;;5106603;28;19912;-56
2022/09/06 11:01:32;;;;;;;;;;;26.00;97.90;;;;;;5107214;28;19908;-57
2022/09/06 11:03:59;;;;;;;;;;;26.00;97.90;;;;;;5106715;28;20104;-56
2022/09/06 11:06:30;;;;;;;;;;;26.00;97.90;;;;;;5106645;28;20104;-60
2022/09/06 11:09:13;;;;;;;;;;;26.00;98.00;;;;;;5106716;28;20263;-58
2022/09/06 11:11:44;;;;;;;;;;;26.00;98.00;;;;;;5106882;28;19919;-54
2022/09/06 11:14:14;;;;;;;;;;;26.00;98.00;;;;;;5105440;28;19919;-57
2022/09/06 11:16:52;;;;;;;;;;;26.00;98.10;;;;;;5106650;28;20200;-53
2022/09/06 11:19:25;;;;;;;;;;;26.00;98.10;;;;;;5106804;28;20198;-58
2022/09/06 11:22:10;;;;;;;;;;;26.00;98.10;;;;;;5106763;28;19908;-55
2022/09/06 11:24:42;;;;;;;;;;;26.10;98.20;;;;;;5106842;28;19908;-56
2022/09/06 11:27:20;;;;;;;;;;;26.00;98.20;;;;;;5106629;28;19947;-55
2022/09/06 11:29:55;;;;;;;;;;;26.10;98.20;;;;;;5106754;28;19908;-54
2022/09/06 11:32:38;;;;;;;;;;;26.10;98.20;;;;;;5106435;28;19915;-54
2022/09/06 11:35:08;;;;;;;;;;;26.10;98.30;;;;;;5106176;28;19920;-55
2022/09/06 11:37:42;;;;;;;;;;;26.10;98.30;;;;;;5106493;28;19914;-53
2022/09/06 11:40:13;;;;;;;;;;;26.10;98.30;;;;;;5106356;28;19935;-56
2022/09/06 11:42:59;;;;;;;;;;;26.10;98.30;;;;;;5106251;28;19962;-55
2022/09/06 11:45:39;;;;;;;;;;;26.10;98.40;;;;;;5106422;28;20207;-56
2022/09/06 11:48:25;;;;;;;;;;;26.10;98.30;;;;;;5106205;28;19908;-54
2022/09/06 11:50:54;;;;;;;;;;;26.10;98.30;;;;;;5106452;28;19908;-56
2022/09/06 11:53:21;;;;;;;;;;;26.10;98.40;;;;;;5105951;28;19940;-57
2022/09/06 11:55:49;;;;;;;;;;;26.10;98.40;;;;;;5106301;28;19908;-55
2022/09/06 11:58:15;;;;;;;;;;;26.10;98.40;;;;;;5105781;28;19912;-55
2022/09/06 12:00:41;;;;;;;;;;;26.10;98.40;;;;;;5105974;28;19904;-55
2022/09/06 12:03:08;;;;;;;;;;;26.10;98.40;;;;;;5105720;28;19919;-56
2022/09/06 12:05:54;;;;;;;;;;;26.10;98.40;;;;;;5106457;28;20100;-53
2022/09/06 12:08:20;;;;;;;;;;;26.10;98.50;;;;;;5105521;28;19926;-54
2022/09/06 12:11:05;;;;;;;;;;;26.10;98.40;;;;;;5106208;28;20168;-54
2022/09/06 12:13:46;;;;;;;;;;;26.20;98.50;;;;;;5105628;28;19916;-53
2022/09/06 12:16:13;;;;;;;;;;;26.10;98.50;;;;;;5105394;28;19922;-53
2022/09/06 12:18:42;;;;;;;;;;;26.10;98.50;;;;;;5105645;28;19915;-54
2022/09/06 12:21:09;;;;;;;;;;;26.10;98.50;;;;;;5105886;28;19927;-58
2022/09/06 12:23:35;;;;;;;;;;;26.20;98.50;;;;;;5105398;28;19958;-54
2022/09/06 12:26:03;;;;;;;;;;;26.20;98.50;;;;;;5105755;28;19941;-55
2022/09/06 12:28:34;;;;;;;;;;;26.20;98.50;;;;;;5105235;28;19975;-54
2022/09/06 12:31:00;;;;;;;;;;;26.20;98.50;;;;;;5105700;28;19908;-61
2022/09/06 12:33:31;;;;;;;;;;;26.30;98.60;;;;;;5105129;28;19955;-55
2022/09/06 12:36:15;;;;;;;;;;;26.30;98.50;;;;;;5105583;28;19924;-57
2022/09/06 12:38:53;;;;;;;;;;;26.30;98.50;;;;;;5105225;28;19919;-54
2022/09/06 12:41:20;;;;;;;;;;;26.30;98.50;;;;;;5105155;28;19912;-55
2022/09/06 12:43:47;;;;;;;;;;;26.30;98.50;;;;;;5105051;28;19914;-56
2022/09/06 12:46:13;;;;;;;;;;;26.30;98.50;;;;;;5104948;28;20249;-54
2022/09/06 12:48:43;;;;;;;;;;;26.30;98.50;;;;;;5104937;28;19908;-55
2022/09/06 12:51:18;;;;;;;;;;;26.30;98.40;;;;;;5105430;28;19914;-55
2022/09/06 12:53:51;;;;;;;;;;;26.30;98.40;;;;;;5104652;28;19916;-57
2022/09/06 12:56:21;;;;;;;;;;;26.30;98.30;;;;;;5104836;28;20112;-55
2022/09/06 12:58:47;;;;;;;;;;;26.30;98.30;;;;;;5104791;28;19912;-57
2022/09/06 13:01:15;;;;;;;;;;;26.40;98.30;;;;;;5104710;28;19931;-55
2022/09/06 13:03:48;;;;;;;;;;;26.40;98.30;;;;;;5104712;28;19939;-57
2022/09/06 13:06:19;;;;;;;;;;;26.40;98.30;;;;;;5104503;28;19994;-53
2022/09/06 13:08:48;;;;;;;;;;;26.40;98.20;;;;;;5104811;28;20077;-56
2022/09/06 13:11:17;;;;;;;;;;;26.40;98.10;;;;;;5104657;28;19916;-54
2022/09/06 13:13:48;;;;;;;;;;;26.40;98.00;;;;;;5104401;28;19918;-55
2022/09/06 13:16:21;;;;;;;;;;;26.40;97.90;;;;;;5104430;28;19916;-55
2022/09/06 13:18:47;;;;;;;;;;;26.40;97.90;;;;;;5104108;28;19943;-55
2022/09/06 13:21:23;;;;;;;;;;;26.40;98.00;;;;;;5104444;28;19920;-54
2022/09/06 13:23:49;;;;;;;;;;;26.40;97.90;;;;;;5104367;28;19915;-54
2022/09/06 13:26:35;;;;;;;;;;;26.40;97.90;;;;;;5104424;28;19954;-56
2022/09/06 13:29:09;;;;;;;;;;;26.40;97.80;;;;;;5104427;28;19946;-56
2022/09/06 13:31:38;;;;;;;;;;;26.40;97.90;;;;;;5104169;28;19912;-56
2022/09/06 13:34:07;;;;;;;;;;;26.40;97.80;;;;;;5104365;28;19931;-53
2022/09/06 13:36:33;;;;;;;;;;;26.40;97.80;;;;;;5103780;28;20192;-55
2022/09/06 13:39:02;;;;;;;;;;;26.40;97.80;;;;;;5104029;28;19904;-54
2022/09/06 13:41:36;;;;;;;;;;;26.40;97.80;;;;;;5104187;28;19919;-57
2022/09/06 13:44:20;;;;;;;;;;;26.40;97.80;;;;;;5104106;28;19958;-54
2022/09/06 13:46:50;;;;;;;;;;;26.50;97.70;;;;;;5104164;28;19919;-56
2022/09/06 13:49:18;;;;;;;;;;;26.40;97.80;;;;;;5104327;28;19908;-56
2022/09/06 13:51:44;;;;;;;;;;;26.40;97.80;;;;;;5104059;28;19920;-55
2022/09/06 13:54:11;;;;;;;;;;;26.40;97.80;;;;;;5104021;28;19912;-56
2022/09/06 13:56:41;;;;;;;;;;;26.40;97.70;;;;;;5104170;28;20193;-53
2022/09/06 13:59:10;;;;;;;;;;;26.50;97.80;;;;;;5104070;28;19965;-58
2022/09/06 14:01:38;;;;;;;;;;;26.50;97.70;;;;;;5104112;28;19908;-55
2022/09/06 14:04:04;;;;;;;;;;;26.50;97.60;;;;;;5103807;28;19908;-52
2022/09/06 14:06:30;;;;;;;;;;;26.50;97.70;;;;;;5104337;28;19927;-55
2022/09/06 14:08:57;;;;;;;;;;;26.50;97.60;;;;;;5104035;28;19908;-57
2022/09/06 14:11:23;;;;;;;;;;;26.50;97.70;;;;;;5104113;28;20198;-54
2022/09/06 14:13:49;;;;;;;;;;;26.50;97.60;;;;;;5104125;28;19908;-57
2022/09/06 14:16:16;;;;;;;;;;;26.60;97.60;;;;;;5103806;28;19951;-54
2022/09/06 14:18:42;;;;;;;;;;;26.60;97.50;;;;;;5103931;28;19904;-53
2022/09/06 14:21:08;;;;;;;;;;;26.60;97.50;;;;;;5104332;28;19978;-54
2022/09/06 14:23:34;;;;;;;;;;;26.60;97.40;;;;;;5104073;28;19912;-53
2022/09/06 14:26:01;;;;;;;;;;;26.60;97.20;;;;;;5104311;28;20183;-57
2022/09/06 14:28:36;;;;;;;;;;;26.60;97.20;;;;;;5103692;28;19986;-56